Time;durP1;ratioP1;P1;durP2;ratioP2;P2;SDS_P1;SDS_P2;PMS_P1;PMS_P2;Temp;Humidity;BMP_temperature;BMP_pressure;BME280_temperature;BME280_humidity;BME280_pressure;Samples;Min_cycle;Max_cycle;Signal;HPM_P1;HPM_P2
2022/10/18 00:00:04;;;;;;;;;;;15.20;99.90;;;;;;5074433;28;19942;-77
2022/10/18 00:02:30;;;;;;;;;;;15.20;99.90;;;;;;5074421;28;19913;-78
2022/10/18 00:04:55;;;;;;;;;;;15.10;99.90;;;;;;5074229;28;19962;-80
2022/10/18 00:07:21;;;;;;;;;;;15.10;99.90;;;;;;5074265;28;19915;-79
2022/10/18 00:09:47;;;;;;;;;;;15.10;99.90;;;;;;5074430;28;20314;-80
2022/10/18 00:12:12;;;;;;;;;;;15.10;99.90;;;;;;5074235;28;19952;-79
2022/10/18 00:14:38;;;;;;;;;;;15.10;99.90;;;;;;5074214;28;20326;-79
2022/10/18 00:17:03;;;;;;;;;;;15.00;99.90;;;;;;5074079;28;19908;-79
2022/10/18 00:19:29;;;;;;;;;;;14.90;99.90;;;;;;5074303;28;20304;-77
2022/10/18 00:21:55;;;;;;;;;;;15.00;99.90;;;;;;5072820;28;19931;-77
2022/10/18 00:24:20;;;;;;;;;;;15.00;99.90;;;;;;5073936;28;19920;-77
2022/10/18 00:26:46;;;;;;;;;;;14.80;99.90;;;;;;5074042;28;19909;-79
2022/10/18 00:29:12;;;;;;;;;;;14.90;99.90;;;;;;5073968;28;20323;-79
2022/10/18 00:31:38;;;;;;;;;;;15.00;99.90;;;;;;5073922;28;20269;-76
2022/10/18 00:34:04;;;;;;;;;;;14.90;99.90;;;;;;5074115;28;19961;-79
2022/10/18 00:36:31;;;;;;;;;;;15.10;99.90;;;;;;5073862;28;19931;-80
2022/10/18 00:38:57;;;;;;;;;;;15.10;99.90;;;;;;5073861;28;19916;-78
2022/10/18 00:41:27;;;;;;;;;;;15.40;99.90;;;;;;5074048;28;19909;-78
2022/10/18 00:44:00;;;;;;;;;;;15.40;99.90;;;;;;5074402;28;19912;-77
2022/10/18 00:46:33;;;;;;;;;;;15.50;99.90;;;;;;5073669;28;19908;-78
2022/10/18 00:49:01;;;;;;;;;;;15.60;99.90;;;;;;5072964;28;19916;-79
2022/10/18 00:51:29;;;;;;;;;;;15.60;99.90;;;;;;5074395;28;19922;-77
2022/10/18 00:53:55;;;;;;;;;;;15.70;99.90;;;;;;5073699;28;19999;-78
2022/10/18 00:56:21;;;;;;;;;;;15.90;99.90;;;;;;5073652;28;20001;-78
2022/10/18 00:58:47;;;;;;;;;;;15.80;99.90;;;;;;5073597;28;19913;-80
2022/10/18 01:01:13;;;;;;;;;;;15.80;99.90;;;;;;5073325;28;20004;-79
2022/10/18 01:03:39;;;;;;;;;;;15.80;99.90;;;;;;5073461;28;20007;-77
2022/10/18 01:06:06;;;;;;;;;;;15.80;99.90;;;;;;5073571;28;19998;-78
2022/10/18 01:08:42;;;;;;;;;;;15.70;99.90;;;;;;5073610;28;19999;-80
2022/10/18 01:11:14;;;;;;;;;;;15.60;99.90;;;;;;5073555;28;19908;-78
2022/10/18 01:13:44;;;;;;;;;;;15.70;99.90;;;;;;5073824;28;19908;-79
2022/10/18 01:16:19;;;;;;;;;;;15.70;99.90;;;;;;5072183;28;20289;-79
2022/10/18 01:18:56;;;;;;;;;;;15.70;99.90;;;;;;5073640;28;19909;-77
2022/10/18 01:21:25;;;;;;;;;;;15.70;99.90;;;;;;5073524;28;19908;-79
2022/10/18 01:24:06;;;;;;;;;;;15.80;99.90;;;;;;5073263;28;20285;-79
2022/10/18 01:26:32;;;;;;;;;;;15.90;99.90;;;;;;5073509;28;20261;-79
2022/10/18 01:29:06;;;;;;;;;;;15.90;99.90;;;;;;5073305;28;19915;-79
2022/10/18 01:31:34;;;;;;;;;;;15.90;99.90;;;;;;5073232;28;20436;-78
2022/10/18 01:34:02;;;;;;;;;;;15.90;99.90;;;;;;5073301;28;19935;-78
2022/10/18 01:36:39;;;;;;;;;;;15.90;99.90;;;;;;5072038;28;19916;-78
2022/10/18 01:39:07;;;;;;;;;;;15.80;99.90;;;;;;5073216;28;19908;-79
2022/10/18 01:41:34;;;;;;;;;;;15.70;99.90;;;;;;5073232;28;19909;-79
2022/10/18 01:44:01;;;;;;;;;;;15.80;99.90;;;;;;5073382;28;20361;-79
2022/10/18 01:46:28;;;;;;;;;;;15.80;99.90;;;;;;5073087;28;19912;-78
2022/10/18 01:48:54;;;;;;;;;;;15.90;99.90;;;;;;5072967;28;19995;-76
2022/10/18 01:51:26;;;;;;;;;;;15.90;99.90;;;;;;5073746;28;20003;-77
2022/10/18 01:53:52;;;;;;;;;;;16.00;99.90;;;;;;5073073;28;19908;-79
2022/10/18 01:56:36;;;;;;;;;;;16.10;99.90;;;;;;5073069;28;19992;-77
2022/10/18 01:59:02;;;;;;;;;;;16.10;99.90;;;;;;5073126;28;19916;-80
2022/10/18 02:01:32;;;;;;;;;;;16.00;99.90;;;;;;5073891;28;19908;-77
2022/10/18 02:04:04;;;;;;;;;;;16.00;99.90;;;;;;5076610;28;20007;-78
2022/10/18 02:06:32;;;;;;;;;;;15.80;99.90;;;;;;5076833;28;20379;-77
2022/10/18 02:09:08;;;;;;;;;;;15.90;99.90;;;;;;5076548;28;19908;-80
2022/10/18 02:11:35;;;;;;;;;;;16.10;99.90;;;;;;5076620;28;19909;-79
2022/10/18 02:14:10;;;;;;;;;;;16.20;99.90;;;;;;5076493;28;19909;-79
2022/10/18 02:16:44;;;;;;;;;;;16.20;99.90;;;;;;5076818;28;19908;-79
2022/10/18 02:19:15;;;;;;;;;;;16.20;99.90;;;;;;5076607;28;19915;-77
2022/10/18 02:21:42;;;;;;;;;;;16.20;99.90;;;;;;5076354;28;19923;-79
2022/10/18 02:47:41;;;;;;;14.27;8.33;;;15.10;99.90;;;;;;5133758;27;20887;-75
2022/10/18 02:50:08;;;;;;;17.50;11.18;;;16.50;99.90;;;;;;5131256;28;20166;-76
2022/10/18 02:52:33;;;;;;;15.90;9.77;;;16.40;99.90;;;;;;5131311;28;20096;-75
2022/10/18 02:55:00;;;;;;;15.45;10.02;;;16.40;99.90;;;;;;5131242;28;20058;-76
2022/10/18 02:57:25;;;;;;;24.17;12.90;;;16.40;99.90;;;;;;5131296;28;20024;-75
2022/10/18 02:59:51;;;;;;;17.40;12.00;;;16.40;99.90;;;;;;5131118;28;20050;-76
2022/10/18 03:02:17;;;;;;;21.80;12.43;;;16.50;99.90;;;;;;5131274;28;20044;-75
2022/10/18 03:04:43;;;;;;;;;;;16.50;99.90;;;;;;5131718;28;20027;-76
2022/10/18 03:07:08;;;;;;;28.15;12.82;;;16.50;99.90;;;;;;5131100;28;19919;-74
2022/10/18 03:09:34;;;;;;;;;;;16.50;99.90;;;;;;5131471;28;20102;-76
2022/10/18 03:12:00;;;;;;;35.35;13.60;;;16.40;99.90;;;;;;5130971;28;19951;-74
2022/10/18 03:14:25;;;;;;;;;;;16.50;99.90;;;;;;5131444;28;20023;-76
2022/10/18 03:16:51;;;;;;;25.30;13.68;;;16.40;99.90;;;;;;5112332;28;19904;-75
2022/10/18 03:19:16;;;;;;;;;;;16.50;99.90;;;;;;5131253;28;20024;-76
2022/10/18 03:21:42;;;;;;;34.50;15.02;;;16.50;99.90;;;;;;5130733;28;20276;-76
2022/10/18 03:24:08;;;;;;;;;;;16.50;99.90;;;;;;5131086;28;20084;-76
2022/10/18 03:26:33;;;;;;;34.38;14.48;;;16.50;99.90;;;;;;5130865;28;19907;-76
2022/10/18 03:28:59;;;;;;;;;;;16.60;99.90;;;;;;5131058;28;20167;-75
2022/10/18 03:31:25;;;;;;;17.98;12.82;;;16.60;99.90;;;;;;5130535;28;20372;-76
2022/10/18 03:33:50;;;;;;;;;;;16.60;99.90;;;;;;5130900;28;20046;-76
2022/10/18 03:36:16;;;;;;;21.27;14.70;;;16.70;99.90;;;;;;5130635;28;20257;-75
2022/10/18 03:38:42;;;;;;;;;;;16.70;99.90;;;;;;5118666;28;20020;-75
2022/10/18 03:41:08;;;;;;;21.98;14.88;;;16.60;99.90;;;;;;5075068;28;20341;-76
2022/10/18 03:43:33;;;;;;;;;;;16.60;99.90;;;;;;5110295;28;20039;-74
2022/10/18 03:45:59;;;;;;;25.15;16.60;;;16.60;99.90;;;;;;5109547;28;20006;-75
2022/10/18 03:48:25;;;;;;;25.02;16.58;;;16.60;99.90;;;;;;5096872;28;20027;-76
2022/10/18 03:50:51;;;;;;;28.27;17.17;;;16.70;99.90;;;;;;5096119;28;20020;-75
2022/10/18 03:53:16;;;;;;;;;;;16.70;99.90;;;;;;5096666;28;20444;-75
2022/10/18 03:55:42;;;;;;;28.13;17.45;;;16.80;99.90;;;;;;5096192;28;19934;-76
2022/10/18 03:58:08;;;;;;;;;;;16.80;99.90;;;;;;5096366;28;20473;-75
2022/10/18 04:00:34;;;;;;;28.92;17.25;;;16.80;99.90;;;;;;5095954;28;19939;-75
2022/10/18 04:03:00;;;;;;;;;;;16.80;99.90;;;;;;5096699;28;20028;-75
2022/10/18 04:05:29;;;;;;;27.58;17.00;;;16.80;99.90;;;;;;5077589;28;19908;-74
2022/10/18 04:07:55;;;;;;;24.23;15.50;;;16.80;99.90;;;;;;5077638;28;20081;-75
2022/10/18 04:10:21;;;;;;;25.13;16.13;;;16.70;99.90;;;;;;5095753;28;20136;-76
2022/10/18 04:12:47;;;;;;;27.77;16.33;;;16.80;99.90;;;;;;5095651;28;20024;-75
2022/10/18 04:15:13;;;;;;;26.05;15.82;;;16.80;99.90;;;;;;5095871;28;20031;-76
2022/10/18 04:17:38;;;;;;;;;;;16.80;99.90;;;;;;5096338;28;20032;-75
2022/10/18 04:20:04;;;;;;;24.98;17.45;;;16.80;99.90;;;;;;5095538;28;19911;-76
2022/10/18 04:22:30;;;;;;;23.67;16.35;;;16.90;99.90;;;;;;5095685;28;20017;-74
2022/10/18 04:24:56;;;;;;;30.70;17.92;;;16.90;99.90;;;;;;5095418;28;20024;-74
2022/10/18 04:27:22;;;;;;;;;;;16.90;99.90;;;;;;5095508;28;20477;-76
2022/10/18 04:29:47;;;;;;;27.23;17.50;;;16.90;99.90;;;;;;5095327;28;19979;-74
2022/10/18 04:32:13;;;;;;;25.98;15.90;;;16.90;99.90;;;;;;5095578;28;20100;-76
2022/10/18 04:34:39;;;;;;;31.08;19.52;;;16.90;99.90;;;;;;5095332;28;20123;-75
2022/10/18 04:37:04;;;;;;;;;;;16.90;99.90;;;;;;5095670;28;20020;-76
2022/10/18 04:39:30;;;;;;;27.58;17.92;;;16.90;99.90;;;;;;5095272;28;19927;-76
2022/10/18 04:41:55;;;;;;;;;;;16.90;99.90;;;;;;5096353;28;20012;-74
2022/10/18 04:44:21;;;;;;;34.38;17.77;;;16.90;99.90;;;;;;5076908;28;19946;-75
2022/10/18 04:46:47;;;;;;;26.35;17.83;;;16.80;99.90;;;;;;5094706;28;20128;-75
2022/10/18 04:49:13;;;;;;;;;;;16.80;99.90;;;;;;5095443;28;20051;-75
2022/10/18 04:51:39;;;;;;;31.15;17.40;;;16.80;99.90;;;;;;5095065;28;19908;-76
2022/10/18 04:54:04;;;;;;;;;;;16.90;99.90;;;;;;5095224;28;20496;-76
2022/10/18 04:56:31;;;;;;;28.90;17.42;;;16.90;99.90;;;;;;5094787;28;19904;-76
2022/10/18 04:58:58;;;;;;;32.05;17.88;;;16.90;99.90;;;;;;5094045;28;20121;-75
2022/10/18 05:01:24;;;;;;;30.77;17.83;;;16.90;99.90;;;;;;5094760;28;20032;-74
2022/10/18 05:03:53;;;;;;;27.15;15.75;;;16.90;99.90;;;;;;5094824;28;20027;-74
2022/10/18 05:06:20;;;;;;;27.73;15.93;;;16.90;99.90;;;;;;5076421;28;20035;-76
2022/10/18 05:08:46;;;;;;;23.15;14.55;;;16.80;99.90;;;;;;5094638;28;20008;-76
2022/10/18 05:11:11;;;;;;;27.70;15.52;;;16.80;99.90;;;;;;5094604;28;20027;-77
2022/10/18 05:13:37;;;;;;;;;;;16.80;99.90;;;;;;5094971;28;20017;-75
2022/10/18 05:16:04;;;;;;;24.75;14.80;;;16.70;99.90;;;;;;5094469;28;20357;-75
2022/10/18 05:18:29;;;;;;;26.00;16.40;;;16.70;99.90;;;;;;5094537;28;20020;-76
2022/10/18 05:20:55;;;;;;;25.15;14.77;;;16.70;99.90;;;;;;5076241;28;20028;-75
2022/10/18 05:23:21;;;;;;;;;;;16.80;99.90;;;;;;5094469;28;20085;-75
2022/10/18 05:25:47;;;;;;;26.05;14.82;;;16.70;99.90;;;;;;5094269;28;19908;-76
2022/10/18 05:28:37;;;;;;;;;;;16.70;99.90;;;;;;5094661;28;20386;-77
2022/10/18 05:31:04;;;;;;;24.73;14.90;;;16.80;99.90;;;;;;5094192;28;19904;-75
2022/10/18 05:33:31;;;;;;;29.35;15.40;;;16.80;99.90;;;;;;5094127;28;20447;-75
2022/10/18 05:35:56;;;;;;;27.90;14.20;;;16.80;99.90;;;;;;5094105;28;20020;-75
2022/10/18 05:38:22;;;;;;;23.80;13.18;;;16.80;99.90;;;;;;5094029;28;20085;-75
2022/10/18 05:40:48;;;;;;;23.50;13.13;;;16.90;99.90;;;;;;5093942;28;20393;-75
2022/10/18 05:43:14;;;;;;;23.83;13.75;;;16.90;99.90;;;;;;5094718;28;20028;-76
2022/10/18 05:45:45;;;;;;;;;;;16.90;99.90;;;;;;5094048;28;20043;-75
2022/10/18 05:48:11;;;;;;;24.17;12.38;;;16.90;99.90;;;;;;5094133;28;19991;-76
2022/10/18 05:50:36;;;;;;;23.98;13.32;;;17.00;99.90;;;;;;5093894;28;20060;-74
2022/10/18 05:53:02;;;;;;;;;;;17.00;99.90;;;;;;5094190;28;20016;-76
2022/10/18 05:55:28;;;;;;;26.67;13.35;;;17.00;99.90;;;;;;5094019;28;20331;-75
2022/10/18 05:57:53;;;;;;;;;;;17.10;99.90;;;;;;5094038;28;20028;-75
2022/10/18 06:00:19;;;;;;;22.13;12.70;;;17.00;99.90;;;;;;5093593;28;19908;-76
2022/10/18 06:02:44;;;;;;;;;;;17.00;99.90;;;;;;5094016;28;20504;-76
2022/10/18 06:05:10;;;;;;;24.48;12.88;;;17.00;99.90;;;;;;5093992;28;19914;-76
2022/10/18 06:07:36;;;;;;;;;;;17.00;99.90;;;;;;5094015;28;20477;-75
2022/10/18 06:10:02;;;;;;;21.98;12.73;;;17.10;99.90;;;;;;5093526;28;19904;-74
2022/10/18 06:12:27;;;;;;;;;;;17.00;99.90;;;;;;5093990;28;20107;-76
2022/10/18 06:14:53;;;;;;;20.50;10.80;;;17.00;99.90;;;;;;5093407;28;19926;-75
2022/10/18 06:17:18;;;;;;;;;;;17.00;99.90;;;;;;5092610;28;20374;-75
2022/10/18 06:19:44;;;;;;;21.45;11.43;;;17.00;99.90;;;;;;5093153;28;19911;-77
2022/10/18 06:22:11;;;;;;;;;;;17.00;99.90;;;;;;5093777;28;20039;-76
2022/10/18 06:24:37;;;;;;;19.38;10.02;;;16.90;99.90;;;;;;5093155;28;19911;-76
2022/10/18 06:27:07;;;;;;;16.30;9.68;;;17.00;99.90;;;;;;5093227;28;20515;-76
2022/10/18 06:29:36;;;;;;;16.08;10.05;;;17.00;99.90;;;;;;5093393;28;20043;-76
2022/10/18 06:32:03;;;;;;;18.17;10.20;;;17.00;99.90;;;;;;5093266;28;20489;-75
2022/10/18 06:34:29;;;;;;;19.90;10.23;;;16.90;99.90;;;;;;5093156;28;20016;-75
2022/10/18 06:36:54;;;;;;;17.30;9.50;;;17.00;99.90;;;;;;5093178;28;20081;-76
2022/10/18 06:39:20;;;;;;;16.67;10.02;;;17.00;99.90;;;;;;5093152;28;20028;-76
2022/10/18 06:41:46;;;;;;;18.73;11.25;;;17.00;99.90;;;;;;5093738;28;20025;-74
2022/10/18 06:44:15;;;;;;;;;;;17.10;99.90;;;;;;5093275;28;20511;-75
2022/10/18 06:46:42;;;;;;;19.95;12.20;;;17.10;99.90;;;;;;5092826;28;19916;-76
2022/10/18 06:49:09;;;;;;;20.27;11.02;;;17.00;99.90;;;;;;5092809;28;20085;-76
2022/10/18 06:51:36;;;;;;;19.52;10.98;;;17.00;99.90;;;;;;5093078;28;20099;-75
2022/10/18 06:54:03;;;;;;;16.52;10.00;;;17.00;99.90;;;;;;5093053;28;20482;-76
2022/10/18 06:56:29;;;;;;;17.75;11.00;;;17.00;99.90;;;;;;5093037;28;20496;-77
2022/10/18 06:58:55;;;;;;;16.10;11.32;;;17.00;99.90;;;;;;5074900;28;20032;-76
2022/10/18 07:01:21;;;;;;;17.08;10.88;;;17.10;99.90;;;;;;5092975;28;20032;-75
2022/10/18 07:03:50;;;;;;;17.30;10.63;;;17.10;99.90;;;;;;5093015;28;20500;-75
2022/10/18 07:06:17;;;;;;;15.18;9.77;;;17.10;99.90;;;;;;5092963;28;20016;-76
2022/10/18 07:08:43;;;;;;;19.48;9.70;;;17.20;99.90;;;;;;5074750;28;20032;-77
2022/10/18 07:11:22;;;;;;;17.48;10.23;;;17.30;99.90;;;;;;5092912;28;20374;-76
2022/10/18 07:13:48;;;;;;;18.83;11.25;;;17.20;99.90;;;;;;5091286;28;20020;-77
2022/10/18 07:16:17;;;;;;;22.38;12.55;;;17.30;99.90;;;;;;5091741;28;20507;-77
2022/10/18 07:18:49;;;;;;;21.40;12.50;;;17.30;99.90;;;;;;5092737;28;20105;-76
2022/10/18 07:21:16;;;;;;;19.98;12.88;;;17.30;99.90;;;;;;5092820;28;20477;-76
2022/10/18 07:23:45;;;;;;;21.75;13.45;;;17.40;99.90;;;;;;5096510;28;20151;-76
2022/10/18 07:26:13;;;;;;;22.10;14.27;;;17.50;99.90;;;;;;5096766;28;20042;-75
2022/10/18 07:28:40;;;;;;;24.63;14.95;;;17.60;99.90;;;;;;5078857;28;20032;-75
2022/10/18 07:31:07;;;;;;;22.00;15.57;;;17.60;99.90;;;;;;5096443;28;20016;-75
2022/10/18 07:33:34;;;;;;;24.90;16.58;;;17.60;99.90;;;;;;5078213;28;20107;-76
2022/10/18 07:36:02;;;;;;;26.05;16.95;;;17.80;99.90;;;;;;5096362;28;20535;-76
2022/10/18 07:38:28;;;;;;;28.20;18.33;;;17.70;99.90;;;;;;5095125;28;20031;-76
2022/10/18 07:40:58;;;;;;;27.02;17.80;;;17.70;99.90;;;;;;5096709;28;20024;-76
2022/10/18 07:43:24;;;;;;;28.88;19.52;;;17.60;99.90;;;;;;5096882;28;20481;-76
2022/10/18 07:45:58;;;;;;;25.45;17.50;;;17.60;99.90;;;;;;5095921;28;20071;-75
2022/10/18 07:48:24;;;;;;;28.13;16.58;;;17.70;99.90;;;;;;5096305;28;20028;-76
2022/10/18 07:50:50;;;;;;;23.42;14.95;;;17.70;99.90;;;;;;5096202;28;20426;-76
2022/10/18 07:53:16;;;;;;;22.02;13.20;;;17.70;99.90;;;;;;5096202;28;20099;-75
2022/10/18 07:55:43;;;;;;;21.15;13.43;;;17.80;99.90;;;;;;5095824;28;20054;-74
2022/10/18 07:58:12;;;;;;;20.55;12.65;;;17.90;99.90;;;;;;5095976;28;20085;-75
2022/10/18 08:00:39;;;;;;;21.90;12.85;;;17.90;99.90;;;;;;5096035;28;20032;-75
2022/10/18 08:03:05;;;;;;;23.95;13.88;;;18.00;99.90;;;;;;5077903;28;20492;-74
2022/10/18 08:05:31;;;;;;;22.13;13.43;;;17.90;99.90;;;;;;5095209;28;20362;-77
2022/10/18 08:07:57;;;;;;;20.63;13.85;;;18.10;99.90;;;;;;5095871;28;20024;-76
2022/10/18 08:10:23;;;;;;;19.27;12.85;;;18.40;99.90;;;;;;5096060;28;20020;-75
2022/10/18 08:12:50;;;;;;;17.77;11.48;;;18.80;99.90;;;;;;5095874;28;20035;-76
2022/10/18 08:15:16;;;;;;;15.90;10.52;;;18.90;99.90;;;;;;5095815;28;20457;-76
2022/10/18 08:17:43;;;;;;;17.58;9.07;;;19.00;99.90;;;;;;5095623;28;20016;-75
2022/10/18 08:20:09;;;;;;;15.05;7.95;;;18.90;99.90;;;;;;5095615;28;20024;-75
2022/10/18 08:22:35;;;;;;;13.45;6.50;;;18.70;99.90;;;;;;5095543;28;20481;-75
2022/10/18 08:25:00;;;;;;;12.10;6.80;;;18.50;99.90;;;;;;5095503;28;20024;-76
2022/10/18 08:27:26;;;;;;;14.82;6.90;;;18.30;99.90;;;;;;5077238;28;20123;-76
2022/10/18 08:29:52;;;;;;;11.77;6.50;;;18.20;99.90;;;;;;5095287;28;20017;-75
2022/10/18 08:32:17;;;;;;;13.20;6.47;;;18.20;99.90;;;;;;5095321;28;20035;-75
2022/10/18 08:34:43;;;;;;;13.88;6.85;;;18.10;99.90;;;;;;5095163;28;20012;-76
2022/10/18 08:37:09;;;;;;;12.65;6.30;;;18.10;99.90;;;;;;5095223;28;20400;-75
2022/10/18 08:39:35;;;;;;;14.75;6.40;;;18.00;99.90;;;;;;5095106;28;20020;-75
2022/10/18 08:42:19;;;;;;;12.65;6.05;;;17.90;99.90;;;;;;5095661;28;20016;-76
2022/10/18 08:44:48;;;;;;;13.82;5.78;;;18.00;99.90;;;;;;5076919;28;20112;-75
2022/10/18 08:47:18;;;;;;;14.82;6.00;;;18.00;99.90;;;;;;5094710;28;20044;-75
2022/10/18 08:49:46;;;;;;;14.82;6.72;;;18.10;99.90;;;;;;5095074;28;20095;-74
2022/10/18 08:52:40;;;;;;;13.02;5.75;;;18.10;99.90;;;;;;5094864;28;20111;-75
2022/10/18 08:55:36;;;;;;;14.10;5.65;;;18.20;99.90;;;;;;5094941;28;20489;-78
2022/10/18 08:58:14;;;;;;;14.15;6.20;;;18.30;99.90;;;;;;5076382;28;20485;-75
2022/10/18 09:00:57;;;;;;;11.20;5.60;;;18.40;99.90;;;;;;5094796;28;20070;-76
2022/10/18 09:03:41;;;;;;;11.93;5.68;;;18.50;99.90;;;;;;5094893;28;20524;-76
2022/10/18 09:06:34;;;;;;;12.07;5.95;;;18.50;99.90;;;;;;5076477;28;20039;-77
2022/10/18 09:09:37;;;;;;;14.48;5.88;;;18.50;99.90;;;;;;5081711;28;20489;-77
2022/10/18 09:12:15;;;;;;;11.48;5.78;;;18.50;99.90;;;;;;5094547;28;20027;-76
2022/10/18 09:15:05;;;;;;;13.45;5.78;;;18.60;99.90;;;;;;5094759;28;20020;-76
2022/10/18 09:17:40;;;;;;;12.07;5.43;;;18.70;99.90;;;;;;5094487;28;20063;-75
2022/10/18 09:20:27;;;;;;;11.53;5.37;;;18.80;99.90;;;;;;5094591;28;20021;-75
2022/10/18 09:23:16;;;;;;;14.07;5.22;;;18.80;99.90;;;;;;5094585;28;20384;-75
2022/10/18 09:25:44;;;;;;;12.88;5.10;;;18.90;99.90;;;;;;5076492;28;20040;-76
2022/10/18 09:28:35;;;;;;;10.52;4.60;;;18.90;99.90;;;;;;5094296;28;20040;-75
2022/10/18 09:31:06;;;;;;;14.07;4.88;;;19.00;99.90;;;;;;5094486;28;20020;-75
2022/10/18 09:33:49;;;;;;;13.52;5.28;;;19.10;99.90;;;;;;5094249;28;20378;-75
2022/10/18 09:36:36;;;;;;;13.05;4.60;;;19.00;99.90;;;;;;5094291;28;20072;-77
2022/10/18 09:39:15;;;;;;;12.38;4.40;;;19.10;99.90;;;;;;5094273;28;20099;-76
2022/10/18 09:42:03;;;;;;;11.02;4.60;;;19.10;99.90;;;;;;5094196;28;20028;-75
2022/10/18 09:44:38;;;;;;;11.85;5.22;;;19.30;99.90;;;;;;5075369;28;20137;-76
2022/10/18 09:47:09;;;;;;;11.70;4.75;;;19.30;99.90;;;;;;5075276;28;20044;-77
2022/10/18 09:50:00;;;;;;;9.18;4.63;;;19.40;99.90;;;;;;5094015;28;20102;-76
2022/10/18 09:52:34;;;;;;;13.20;4.97;;;19.20;99.90;;;;;;5082317;28;20084;-74
2022/10/18 09:55:16;;;;;;;14.80;5.53;;;19.30;99.90;;;;;;5094004;28;20048;-75
2022/10/18 09:57:54;;;;;;;13.85;6.47;;;19.30;99.90;;;;;;5094369;28;20027;-75
2022/10/18 10:00:26;;;;;;;14.98;7.65;;;19.40;99.90;;;;;;5094000;28;20024;-73
2022/10/18 10:02:59;;;;;;;13.02;8.00;;;19.40;99.90;;;;;;5075267;28;20024;-76
2022/10/18 10:05:25;;;;;;;17.08;8.05;;;19.30;99.90;;;;;;5093590;28;20028;-75
2022/10/18 10:07:58;;;;;;;15.32;8.07;;;19.30;99.90;;;;;;5093932;28;20016;-75
2022/10/18 10:10:26;;;;;;;13.02;7.57;;;19.30;99.90;;;;;;5093755;28;20562;-75
2022/10/18 10:13:16;;;;;;;16.42;7.93;;;19.30;99.90;;;;;;5093451;28;20016;-76
2022/10/18 10:16:11;;;;;;;13.50;7.90;;;19.50;99.90;;;;;;5093650;28;20028;-75
2022/10/18 10:18:39;;;;;;;14.88;7.38;;;19.60;99.90;;;;;;5072215;28;20107;-75
2022/10/18 10:21:11;;;;;;;11.93;6.25;;;19.60;99.90;;;;;;5093489;28;20043;-76
2022/10/18 10:23:43;;;;;;;13.07;5.30;;;19.70;99.90;;;;;;5075093;28;20035;-75
2022/10/18 10:26:29;;;;;;;12.80;5.63;;;19.60;99.90;;;;;;5074932;28;20123;-75
2022/10/18 10:28:55;;;;;;;13.90;5.22;;;19.70;99.90;;;;;;5093414;28;20028;-76
2022/10/18 10:31:23;;;;;;;13.38;5.43;;;19.60;99.90;;;;;;5093273;28;20020;-76
2022/10/18 10:34:18;;;;;;;11.25;4.80;;;19.50;99.90;;;;;;5075234;28;20051;-76
2022/10/18 10:36:49;;;;;;;12.70;4.90;;;19.60;99.90;;;;;;5079451;28;20028;-77
2022/10/18 10:39:18;;;;;;;12.18;4.35;;;19.60;99.90;;;;;;5057988;28;20020;-75
2022/10/18 10:41:55;;;;;;;11.68;4.95;;;19.70;99.90;;;;;;5082203;28;20023;-75
2022/10/18 10:44:34;;;;;;;10.18;4.78;;;19.80;99.90;;;;;;5083344;28;20023;-74
2022/10/18 10:47:01;;;;;;;10.55;4.78;;;19.90;99.90;;;;;;5067184;28;20045;-77
2022/10/18 10:49:50;;;;;;;15.90;4.78;;;20.00;99.90;;;;;;5064174;28;20075;-76
2022/10/18 10:52:20;;;;;;;12.68;4.63;;;20.00;99.90;;;;;;5060019;28;20033;-76
2022/10/18 10:54:46;;;;;;;11.45;4.30;;;20.00;99.90;;;;;;5063032;28;20020;-77
2022/10/18 10:57:12;;;;;;;11.85;4.25;;;20.10;99.90;;;;;;5061989;28;20025;-76
2022/10/18 10:59:44;;;;;;;13.10;4.88;;;20.10;99.90;;;;;;5066716;28;20397;-77
2022/10/18 11:02:13;;;;;;;9.38;4.15;;;20.20;99.90;;;;;;5067524;28;20032;-74
2022/10/18 11:04:40;;;;;;;10.93;4.32;;;20.40;99.90;;;;;;5048400;28;20028;-73
2022/10/18 11:07:11;;;;;;;12.20;4.68;;;20.50;99.90;;;;;;5065583;28;20367;-76
2022/10/18 11:10:09;;;;;;;13.15;4.88;;;20.70;99.90;;;;;;5065577;28;20021;-76
2022/10/18 11:12:40;;;;;;;9.90;4.15;;;20.80;99.90;;;;;;5044990;28;20029;-74
2022/10/18 11:15:31;;;;;;;11.50;4.28;;;20.90;99.90;;;;;;5066880;28;20024;-75
2022/10/18 11:18:20;;;;;;;11.15;4.00;;;21.10;99.90;;;;;;5066547;28;20039;-74
2022/10/18 11:20:57;;;;;;;9.18;3.97;;;21.00;99.90;;;;;;5066680;28;20071;-75
2022/10/18 11:23:31;;;;;;;10.70;4.20;;;20.70;99.90;;;;;;5064046;28;20061;-75
2022/10/18 11:26:11;;;;;;;14.15;4.45;;;20.30;99.90;;;;;;5065182;28;20474;-76
2022/10/18 11:28:45;;;;;;;14.10;5.00;;;20.10;99.90;;;;;;5065463;28;20116;-76
2022/10/18 11:31:17;;;;;;;13.55;4.60;;;20.00;99.90;;;;;;5064873;28;20017;-76
2022/10/18 11:34:06;;;;;;;11.98;4.70;;;20.00;99.90;;;;;;5065418;28;20025;-74
2022/10/18 11:36:40;;;;;;;13.70;4.70;;;20.10;99.90;;;;;;5073002;28;20016;-76
2022/10/18 11:39:17;;;;;;;10.77;4.10;;;20.40;99.90;;;;;;5058095;28;20024;-77
2022/10/18 11:41:54;;;;;;;18.15;4.80;;;20.50;99.90;;;;;;5076377;28;20031;-77
2022/10/18 11:44:30;;;;;;;11.45;4.70;;;20.50;99.90;;;;;;5076596;28;20086;-75
2022/10/18 11:46:59;;;;;;;12.85;4.57;;;20.30;99.90;;;;;;5075810;28;20101;-77
2022/10/18 11:49:51;;;;;;;10.45;4.43;;;20.10;99.90;;;;;;5058014;28;20021;-77
2022/10/18 11:52:17;;;;;;;10.43;4.35;;;20.20;99.90;;;;;;5076362;28;20021;-76
2022/10/18 11:54:48;;;;;;;13.65;4.72;;;20.20;99.90;;;;;;5057884;28;20023;-77
2022/10/18 11:57:14;;;;;;;9.80;4.60;;;20.00;99.90;;;;;;5057645;28;20078;-76
2022/10/18 11:59:49;;;;;;;9.60;4.70;;;20.00;99.90;;;;;;5057824;28;20037;-76
2022/10/18 12:02:58;;;;;;;18.67;5.25;;;20.10;99.90;;;;;;5075956;28;20024;-77
2022/10/18 12:05:24;;;;;;;10.25;4.68;;;20.20;99.90;;;;;;5075701;28;20033;-75
2022/10/18 12:08:01;;;;;;;11.60;5.18;;;20.30;99.90;;;;;;5075458;28;20522;-75
2022/10/18 12:10:30;;;;;;;10.00;4.90;;;20.30;99.90;;;;;;5057409;28;20470;-76
2022/10/18 12:13:01;;;;;;;10.63;4.57;;;20.20;99.90;;;;;;5057579;28;20074;-76
2022/10/18 12:15:30;;;;;;;10.95;4.93;;;20.20;99.90;;;;;;5075542;28;20390;-76
2022/10/18 12:18:02;;;;;;;10.88;5.00;;;20.20;99.90;;;;;;5075466;28;20490;-76
2022/10/18 12:20:33;;;;;;;14.55;4.70;;;20.40;99.90;;;;;;5075452;28;20024;-76
2022/10/18 12:23:12;;;;;;;10.13;4.80;;;20.30;99.90;;;;;;5075349;28;20398;-76
2022/10/18 12:25:42;;;;;;;12.57;4.45;;;20.50;99.90;;;;;;5075587;28;20103;-75
2022/10/18 12:28:18;;;;;;;9.40;4.65;;;20.50;99.90;;;;;;5075533;28;20028;-76
2022/10/18 12:31:00;;;;;;;9.98;4.85;;;20.60;99.90;;;;;;5075336;28;20020;-76
2022/10/18 12:33:30;;;;;;;11.60;4.68;;;20.70;99.90;;;;;;5075274;28;20016;-75
2022/10/18 12:36:20;;;;;;;10.10;4.80;;;20.60;99.90;;;;;;5075317;28;20040;-75
2022/10/18 12:38:56;;;;;;;11.27;5.00;;;20.40;99.90;;;;;;5075175;28;20033;-75
2022/10/18 12:41:27;;;;;;;10.60;5.05;;;20.50;99.90;;;;;;5075144;28;20134;-76
2022/10/18 12:44:18;;;;;;;16.20;5.60;;;20.50;99.90;;;;;;5075474;28;20029;-75
2022/10/18 12:46:59;;;;;;;10.18;4.55;;;20.80;99.90;;;;;;5074749;28;20074;-76
2022/10/18 12:49:36;;;;;;;10.75;5.07;;;21.20;99.90;;;;;;5074609;28;20070;-76
2022/10/18 12:52:06;;;;;;;10.85;5.07;;;21.40;99.90;;;;;;5074770;28;20032;-76
2022/10/18 12:54:38;;;;;;;13.23;5.38;;;21.30;99.90;;;;;;5075329;28;20043;-76
2022/10/18 12:57:22;;;;;;;11.38;5.13;;;21.30;99.90;;;;;;5074724;28;20470;-78
2022/10/18 12:59:48;;;;;;;12.35;5.00;;;21.40;99.90;;;;;;5075139;28;20074;-76
2022/10/18 13:02:21;;;;;;;14.55;5.53;;;21.40;99.90;;;;;;5074965;28;20024;-76
2022/10/18 13:04:48;;;;;;;13.07;5.40;;;21.50;99.90;;;;;;5074471;28;20490;-77
2022/10/18 13:07:42;;;;;;;13.95;5.65;;;21.40;99.90;;;;;;5074486;28;20027;-75
2022/10/18 13:10:13;;;;;;;13.68;4.70;;;21.30;99.90;;;;;;5056385;28;20029;-76
2022/10/18 13:13:13;;;;;;;14.55;6.00;;;21.00;99.90;;;;;;5074473;28;20581;-76
2022/10/18 13:15:46;;;;;;;15.25;6.25;;;21.00;99.90;;;;;;5074842;28;20028;-77
2022/10/18 13:18:27;;;;;;;13.40;5.65;;;21.00;99.90;;;;;;5074493;28;20024;-75
2022/10/18 13:21:23;;;;;;;13.05;5.72;;;21.20;99.90;;;;;;5073554;28;20024;-75
2022/10/18 13:24:15;;;;;;;13.23;6.00;;;21.40;99.90;;;;;;5074186;28;20478;-75
2022/10/18 13:27:11;;;;;;;13.25;5.70;;;21.40;99.90;;;;;;5073889;28;20111;-77
2022/10/18 13:30:14;;;;;;;15.07;6.00;;;21.30;99.90;;;;;;5074643;28;20012;-75
2022/10/18 13:32:50;;;;;;;16.17;7.07;;;21.00;99.90;;;;;;5074534;28;20024;-74
2022/10/18 13:35:56;;;;;;;16.85;7.05;;;20.70;99.90;;;;;;5073965;28;20493;-76
2022/10/18 13:38:29;;;;;;;17.35;6.60;;;20.80;99.90;;;;;;5073842;28;20179;-77
2022/10/18 13:41:10;;;;;;;15.68;5.97;;;20.90;99.90;;;;;;5073940;28;20031;-77
2022/10/18 13:44:07;;;;;;;12.88;5.45;;;21.40;99.90;;;;;;5056094;28;20437;-77